MUC weather

Munich Airport
Munich, Bavaria, Germany

Public forecast

Using degrees Celsius for public forecast. Weather courtesy of forecast.io.

METAR (pilot weather report)

Retrieved 2018/08/17 09:20 UTC (35 minutes ago):

EDDM 170920Z VRB03KT CAVOK 24/13 Q1017 NOSIG

TAF (pilot weather forecast)

Retrieved 2018/08/17 06:27 UTC (3 hours ago):

TAF EDDM 170500Z 1706/1812 VRB02KT CAVOK TEMPO 1711/1717 36005KT BECMG 1720/1722 27007KT